createdAt,value
2023-08-05T00:00:20.487Z,13.25
2023-08-05T00:02:49.192Z,12.40
2023-08-05T00:05:18.055Z,11.50
2023-08-05T00:07:51.336Z,11.68
2023-08-05T00:10:20.206Z,9.03
2023-08-05T00:12:49.104Z,8.40
2023-08-05T00:15:19.642Z,7.35
2023-08-05T00:17:48.390Z,11.57
2023-08-05T00:20:17.260Z,11.73
2023-08-05T00:22:47.365Z,11.18
2023-08-05T00:25:16.195Z,9.80
2023-08-05T00:27:45.069Z,7.83
2023-08-05T00:30:14.370Z,11.08
2023-08-05T00:32:43.228Z,9.70
2023-08-05T00:35:12.063Z,10.13
2023-08-05T00:37:41.023Z,13.15
2023-08-05T00:40:11.175Z,11.63
2023-08-05T00:42:40.080Z,14.80
2023-08-05T00:45:09.625Z,9.30
2023-08-05T00:47:41.287Z,13.10
2023-08-05T00:50:11.064Z,13.15
2023-08-05T00:52:41.209Z,8.38
2023-08-05T00:55:10.142Z,8.28
2023-08-05T00:57:39.165Z,10.18
2023-08-05T01:00:09.345Z,14.95
2023-08-05T01:02:38.101Z,10.53
2023-08-05T01:05:07.128Z,13.18
2023-08-05T01:07:54.769Z,7.53
2023-08-05T01:10:25.141Z,9.03
2023-08-05T01:12:53.880Z,7.65
2023-08-05T01:15:22.852Z,13.95
2023-08-05T01:17:54.333Z,10.45
2023-08-05T01:20:26.100Z,8.30
2023-08-05T01:22:58.543Z,7.15
2023-08-05T01:25:30.428Z,9.83
2023-08-05T01:28:01.898Z,18.23
2023-08-05T01:30:33.255Z,8.78
2023-08-05T01:33:05.423Z,6.65
2023-08-05T01:35:34.184Z,8.13
2023-08-05T01:38:02.961Z,7.20
2023-08-05T01:40:31.971Z,6.67
2023-08-05T01:43:04.416Z,9.10
2023-08-05T01:45:34.724Z,8.13
2023-08-05T01:48:03.576Z,7.28
2023-08-05T01:50:32.421Z,13.18
2023-08-05T01:53:02.784Z,7.60
2023-08-05T01:55:31.704Z,11.97
2023-08-05T01:58:03.737Z,8.45
2023-08-05T02:00:32.721Z,7.65
2023-08-05T02:03:01.624Z,8.75
2023-08-05T02:05:30.498Z,14.18
2023-08-05T02:07:59.239Z,8.13
2023-08-05T02:10:27.990Z,11.28
2023-08-05T02:12:58.439Z,10.08
2023-08-05T02:15:28.989Z,10.98
2023-08-05T02:17:57.881Z,12.63
2023-08-05T02:20:26.729Z,8.95
2023-08-05T02:22:55.421Z,10.60
2023-08-05T02:25:25.846Z,10.20
2023-08-05T02:27:54.565Z,13.50
2023-08-05T02:30:23.270Z,7.37
2023-08-05T02:32:52.017Z,11.68
2023-08-05T02:35:20.720Z,12.50
2023-08-05T02:37:49.527Z,12.37
2023-08-05T02:40:18.421Z,10.75
2023-08-05T02:42:49.120Z,7.70
2023-08-05T02:45:17.971Z,7.97
2023-08-05T02:47:46.859Z,9.83
2023-08-05T02:50:15.709Z,8.03
2023-08-05T02:52:44.319Z,11.18
2023-08-05T02:55:13.223Z,8.10
2023-08-05T02:57:41.925Z,8.93
2023-08-05T03:00:11.994Z,6.58
2023-08-05T03:02:40.829Z,11.30
2023-08-05T03:05:09.929Z,8.60
2023-08-05T03:07:38.723Z,11.45
2023-08-05T03:10:08.057Z,10.55
2023-08-05T03:12:37.087Z,8.63
2023-08-05T03:15:06.247Z,8.88
2023-08-05T03:17:36.568Z,10.48
2023-08-05T03:20:07.042Z,9.85
2023-08-05T03:22:35.905Z,8.68
2023-08-05T03:25:04.654Z,7.53
2023-08-05T03:27:33.513Z,10.75
2023-08-05T03:30:02.232Z,7.08
2023-08-05T03:32:30.981Z,8.75
2023-08-05T03:34:59.774Z,7.72
2023-08-05T03:37:30.934Z,15.45
2023-08-05T03:40:04.122Z,8.15
2023-08-05T03:42:32.951Z,6.80
2023-08-05T03:45:01.815Z,7.85
2023-08-05T03:47:36.193Z,8.00
2023-08-05T03:50:05.294Z,10.58
2023-08-05T03:52:41.504Z,9.78
2023-08-05T03:55:10.562Z,8.60
2023-08-05T03:57:40.874Z,6.55
2023-08-05T04:00:10.601Z,10.80
2023-08-05T04:02:39.542Z,8.20
2023-08-05T04:05:08.725Z,12.35
2023-08-05T04:07:38.987Z,9.98
2023-08-05T04:10:08.707Z,10.20
2023-08-05T04:12:37.702Z,8.25
2023-08-05T04:15:09.365Z,7.28
2023-08-05T04:17:38.145Z,7.15
2023-08-05T04:20:08.093Z,9.75
2023-08-05T04:22:37.957Z,12.58
2023-08-05T04:25:07.877Z,12.37
2023-08-05T04:27:38.536Z,7.47
2023-08-05T04:30:09.189Z,7.12
2023-08-05T04:32:42.423Z,7.12
2023-08-05T04:35:11.657Z,6.87
2023-08-05T04:37:40.397Z,9.43
2023-08-05T04:40:12.913Z,8.60
2023-08-05T04:42:41.741Z,10.18
2023-08-05T04:45:12.348Z,8.25
2023-08-05T04:47:42.726Z,7.87
2023-08-05T04:50:13.428Z,9.68
2023-08-05T04:52:45.517Z,7.97
2023-08-05T04:55:16.931Z,7.08
2023-08-05T04:57:47.378Z,7.60
2023-08-05T05:00:16.168Z,17.02
2023-08-05T05:02:44.858Z,8.38
2023-08-05T05:05:14.255Z,9.65
2023-08-05T05:07:43.051Z,7.08
2023-08-05T05:10:13.686Z,7.00
2023-08-05T05:12:44.223Z,6.42
2023-08-05T05:15:13.309Z,7.47
2023-08-05T05:17:42.149Z,6.35
2023-08-05T05:20:11.316Z,13.75
2023-08-05T05:22:40.340Z,13.50
2023-08-05T05:25:09.332Z,6.72
2023-08-05T05:27:38.904Z,8.35
2023-08-05T05:30:08.473Z,10.78
2023-08-05T05:32:37.561Z,8.60
2023-08-05T05:35:06.664Z,8.30
2023-08-05T05:37:37.010Z,11.38
2023-08-05T05:40:06.206Z,7.67
2023-08-05T05:42:35.022Z,14.13
2023-08-05T05:45:04.206Z,10.03
2023-08-05T05:47:32.933Z,7.58
2023-08-05T05:50:01.942Z,10.50
2023-08-05T05:52:31.315Z,8.70
2023-08-05T05:55:00.129Z,11.88
2023-08-05T05:57:29.019Z,10.18
2023-08-05T06:00:00.928Z,9.40
2023-08-05T06:02:33.477Z,9.93
2023-08-05T06:05:02.456Z,6.72
2023-08-05T06:07:33.593Z,6.00
2023-08-05T06:10:04.212Z,9.30
2023-08-05T06:12:34.641Z,7.83
2023-08-05T06:15:05.391Z,9.63
2023-08-05T06:17:34.279Z,8.05
2023-08-05T06:20:04.050Z,12.07
2023-08-05T06:22:32.722Z,10.45
2023-08-05T06:25:01.791Z,9.88
2023-08-05T06:27:31.977Z,9.60
2023-08-05T06:30:01.487Z,8.45
2023-08-05T06:32:30.320Z,7.05
2023-08-05T06:34:59.221Z,8.00
2023-08-05T06:37:27.814Z,9.40
2023-08-05T06:39:58.504Z,9.20
2023-08-05T06:42:36.539Z,6.83
2023-08-05T06:45:10.978Z,11.50
2023-08-05T06:47:40.085Z,8.38
2023-08-05T06:50:10.986Z,8.68
2023-08-05T06:52:39.705Z,10.65
2023-08-05T06:55:09.978Z,8.05
2023-08-05T06:57:42.853Z,12.82
2023-08-05T07:00:12.587Z,8.45
2023-08-05T07:02:41.394Z,10.72
2023-08-05T07:05:10.287Z,10.15
2023-08-05T07:07:38.975Z,8.68
2023-08-05T07:10:10.025Z,10.48
2023-08-05T07:12:40.334Z,8.50
2023-08-05T07:15:13.661Z,10.20
2023-08-05T07:17:43.223Z,9.70
2023-08-05T07:20:12.563Z,13.55
2023-08-05T07:22:41.524Z,7.03
2023-08-05T07:25:10.383Z,13.38
2023-08-05T07:27:39.123Z,8.20
2023-08-05T07:30:09.281Z,11.22
2023-08-05T07:32:38.196Z,12.93
2023-08-05T07:35:09.175Z,9.90
2023-08-05T07:37:38.024Z,10.30
2023-08-05T07:40:08.765Z,11.83
2023-08-05T07:42:37.516Z,9.70
2023-08-05T07:45:08.290Z,11.33
2023-08-05T07:47:38.533Z,7.28
2023-08-05T07:50:08.664Z,9.28
2023-08-05T07:52:37.540Z,10.65
2023-08-05T07:55:10.411Z,6.45
2023-08-05T07:57:42.253Z,9.33
2023-08-05T08:00:13.176Z,7.20
2023-08-05T08:02:45.981Z,10.15
2023-08-05T08:05:19.632Z,8.98
2023-08-05T08:07:48.677Z,7.28
2023-08-05T08:10:17.900Z,10.35
2023-08-05T08:12:49.687Z,7.60
2023-08-05T08:15:30.465Z,10.78
2023-08-05T08:17:59.531Z,15.10
2023-08-05T08:20:28.370Z,7.17
2023-08-05T08:23:07.194Z,7.20
2023-08-05T08:25:38.478Z,10.68
2023-08-05T08:28:35.049Z,9.03
2023-08-05T08:37:02.416Z,13.43
2023-08-05T08:39:31.285Z,8.95
2023-08-05T08:42:00.287Z,8.68
2023-08-05T08:44:35.271Z,8.48
2023-08-05T08:47:15.052Z,11.50
2023-08-05T08:49:47.432Z,11.93
2023-08-05T08:52:23.167Z,9.85
2023-08-05T08:55:00.572Z,10.20
2023-08-05T08:57:31.222Z,11.57
2023-08-05T09:00:01.857Z,8.75
2023-08-05T09:02:32.978Z,9.50
2023-08-05T09:05:11.768Z,8.38
2023-08-05T09:07:46.477Z,13.08
2023-08-05T09:14:00.322Z,7.78
2023-08-05T09:16:20.989Z,12.23
2023-08-05T09:18:59.357Z,11.08
2023-08-05T09:21:28.068Z,8.00
2023-08-05T09:23:58.030Z,8.63
2023-08-05T09:26:33.533Z,14.05
2023-08-05T09:29:09.055Z,8.43
2023-08-05T09:31:39.368Z,10.15
2023-08-05T09:34:10.740Z,10.30
2023-08-05T09:36:41.936Z,10.13
2023-08-05T09:39:18.038Z,8.50
2023-08-05T09:41:59.251Z,10.28
2023-08-05T09:44:28.937Z,10.15
2023-08-05T09:47:11.511Z,15.65
2023-08-05T09:49:42.923Z,10.18
2023-08-05T09:52:15.124Z,10.08
2023-08-05T09:54:47.434Z,7.95
2023-08-05T09:57:29.997Z,8.53
2023-08-05T10:00:06.859Z,8.30
2023-08-05T10:02:37.389Z,14.18
2023-08-05T10:05:09.180Z,8.63
2023-08-05T10:08:06.023Z,9.93
2023-08-05T10:10:33.018Z,7.85
2023-08-05T10:13:07.102Z,9.35
2023-08-05T10:15:41.944Z,6.87
2023-08-05T10:18:12.580Z,9.38
2023-08-05T10:20:46.038Z,9.28
2023-08-05T10:23:19.709Z,16.02
2023-08-05T10:25:53.964Z,8.20
2023-08-05T10:28:28.730Z,7.65
2023-08-05T10:30:58.894Z,9.58
2023-08-05T10:33:30.582Z,10.50
2023-08-05T10:36:09.547Z,8.65
2023-08-05T10:38:44.495Z,11.28
2023-08-05T10:41:18.961Z,11.50
2023-08-05T10:43:48.582Z,10.85
2023-08-05T10:46:19.049Z,8.70
2023-08-05T10:48:52.302Z,7.95
2023-08-05T10:51:24.221Z,8.20
2023-08-05T10:54:08.175Z,7.67
2023-08-05T10:56:39.732Z,13.13
2023-08-05T10:59:15.276Z,10.58
2023-08-05T11:02:01.417Z,9.90
2023-08-05T11:04:49.471Z,8.23
2023-08-05T11:07:30.363Z,8.78
2023-08-05T11:10:00.581Z,8.15
2023-08-05T11:12:32.794Z,12.95
2023-08-05T11:15:05.062Z,10.35
2023-08-05T11:17:35.407Z,8.98
2023-08-05T11:20:07.869Z,9.18
2023-08-05T11:22:37.948Z,7.12
2023-08-05T11:25:10.400Z,9.78
2023-08-05T11:27:43.308Z,9.93
2023-08-05T11:30:19.971Z,10.38
2023-08-05T11:32:58.890Z,12.98
2023-08-05T11:35:31.064Z,8.83
2023-08-05T11:38:00.317Z,7.97
2023-08-05T11:40:29.322Z,12.88
2023-08-05T11:42:58.982Z,10.65
2023-08-05T11:45:27.808Z,8.80
2023-08-05T11:47:56.966Z,12.98
2023-08-05T11:50:28.800Z,9.13
2023-08-05T11:53:08.991Z,8.38
2023-08-05T11:55:43.544Z,8.15
2023-08-05T11:58:16.239Z,6.65
2023-08-05T12:00:50.520Z,7.12
2023-08-05T12:03:22.858Z,6.45
2023-08-05T12:05:51.703Z,6.85
2023-08-05T12:08:46.499Z,8.08
2023-08-05T12:11:25.963Z,6.78
2023-08-05T12:16:57.554Z,11.15
2023-08-05T12:19:28.295Z,7.08
2023-08-05T12:21:57.386Z,6.65
2023-08-05T12:24:26.134Z,6.10
2023-08-05T12:26:55.029Z,9.55
2023-08-05T12:29:23.739Z,7.83
2023-08-05T12:31:52.655Z,5.83
2023-08-05T12:34:23.362Z,6.60
2023-08-05T12:36:53.700Z,6.87
2023-08-05T12:39:22.531Z,7.25
2023-08-05T12:44:50.543Z,7.35
2023-08-05T12:47:27.204Z,8.43
2023-08-05T12:49:59.561Z,8.30
2023-08-05T12:52:34.103Z,7.67
2023-08-05T12:55:07.435Z,10.20
2023-08-05T12:57:36.647Z,7.47
2023-08-05T13:00:06.011Z,11.50
2023-08-05T13:02:37.276Z,9.65
2023-08-05T13:05:06.321Z,7.90
2023-08-05T13:07:38.000Z,6.58
2023-08-05T13:10:10.327Z,8.38
2023-08-05T13:12:41.800Z,7.25
2023-08-05T13:15:11.474Z,9.73
2023-08-05T13:17:40.321Z,8.98
2023-08-05T13:20:10.078Z,11.33
2023-08-05T13:22:40.122Z,6.15
2023-08-05T13:25:17.509Z,7.42
2023-08-05T13:27:49.696Z,6.58
2023-08-05T13:30:29.016Z,8.68
2023-08-05T13:32:59.775Z,10.05
2023-08-05T13:35:31.702Z,19.27
2023-08-05T13:38:19.194Z,7.45
2023-08-05T13:41:08.192Z,6.08
2023-08-05T13:49:45.068Z,8.43
2023-08-05T13:52:15.458Z,5.20
2023-08-05T13:54:56.459Z,9.25
2023-08-05T13:57:55.834Z,6.95
2023-08-05T14:00:24.938Z,5.53
2023-08-05T14:02:56.700Z,7.78
2023-08-05T14:05:25.664Z,7.37
2023-08-05T14:08:02.058Z,6.95
2023-08-05T14:10:30.844Z,5.00
2023-08-05T14:12:59.730Z,9.80
2023-08-05T14:15:44.961Z,7.90
2023-08-05T14:18:15.063Z,5.62
2023-08-05T14:20:48.548Z,7.55
2023-08-05T14:23:17.931Z,6.22
2023-08-05T14:25:51.288Z,8.55
2023-08-05T14:28:21.981Z,5.58
2023-08-05T14:30:51.016Z,7.97
2023-08-05T14:33:22.998Z,6.92
2023-08-05T14:35:54.470Z,6.58
2023-08-05T14:38:22.768Z,8.10
2023-08-05T14:40:51.827Z,7.47
2023-08-05T14:43:21.090Z,4.55
2023-08-05T14:46:00.972Z,6.72
2023-08-05T14:48:40.782Z,7.97
2023-08-05T14:51:10.358Z,8.95
2023-08-05T14:53:55.458Z,5.83
2023-08-05T14:56:30.957Z,7.78
2023-08-05T14:59:05.818Z,11.20
2023-08-05T15:01:36.359Z,4.50
2023-08-05T15:07:19.848Z,8.30
2023-08-05T15:13:34.733Z,10.75
2023-08-05T15:16:13.803Z,8.45
2023-08-05T15:18:45.108Z,6.83
2023-08-05T15:21:14.193Z,6.33
2023-08-05T15:23:44.929Z,11.25
2023-08-05T15:26:13.487Z,9.18
2023-08-05T15:28:42.220Z,9.00
2023-08-05T15:31:26.263Z,7.95
2023-08-05T15:34:02.792Z,5.10
2023-08-05T15:36:37.744Z,8.20
2023-08-05T15:39:13.666Z,8.38
2023-08-05T15:41:55.033Z,6.87
2023-08-05T15:44:30.149Z,8.40
2023-08-05T15:47:37.884Z,6.62
2023-08-05T15:49:39.596Z,6.08
2023-08-05T15:52:11.612Z,5.90
2023-08-05T15:54:45.309Z,7.50
2023-08-05T15:57:18.773Z,9.10
2023-08-05T15:59:54.232Z,5.33
2023-08-05T16:02:27.211Z,6.25
2023-08-05T16:04:58.141Z,6.50
2023-08-05T16:07:31.727Z,8.88
2023-08-05T16:10:10.562Z,7.42
2023-08-05T16:12:41.427Z,11.53
2023-08-05T16:15:12.258Z,8.23
2023-08-05T16:17:43.910Z,11.25
2023-08-05T16:20:16.539Z,7.72
2023-08-05T16:22:56.286Z,8.13
2023-08-05T16:25:23.513Z,11.12
2023-08-05T16:30:50.273Z,9.55
2023-08-05T16:33:42.782Z,12.40
2023-08-05T16:36:13.343Z,10.50
2023-08-05T16:38:44.762Z,10.32
2023-08-05T16:41:13.781Z,10.75
2023-08-05T16:43:44.292Z,13.08
2023-08-05T16:46:13.582Z,10.30
2023-08-05T16:48:42.437Z,10.08
2023-08-05T16:51:12.677Z,12.47
2023-08-05T16:53:41.959Z,9.00
2023-08-05T16:56:11.695Z,10.00
2023-08-05T16:58:42.303Z,15.20
2023-08-05T17:01:33.649Z,9.50
2023-08-05T17:04:04.132Z,10.08
2023-08-05T17:06:33.256Z,11.75
2023-08-05T17:09:02.111Z,13.62
2023-08-05T17:12:05.069Z,11.60
2023-08-05T17:15:03.063Z,11.08
2023-08-05T17:17:24.067Z,11.15
2023-08-05T17:19:52.928Z,20.17
2023-08-05T17:22:26.203Z,11.35
2023-08-05T17:24:56.761Z,13.85
2023-08-05T17:27:27.368Z,15.88
2023-08-05T17:29:56.225Z,15.13
2023-08-05T17:32:41.384Z,10.03
2023-08-05T17:35:10.548Z,10.70
2023-08-05T17:37:42.420Z,9.43
2023-08-05T17:40:14.313Z,12.70
2023-08-05T17:42:43.105Z,12.05
2023-08-05T17:45:15.347Z,9.88
2023-08-05T17:47:45.079Z,11.12
2023-08-05T17:50:13.970Z,10.88
2023-08-05T17:52:50.116Z,11.68
2023-08-05T17:55:18.916Z,14.55
2023-08-05T17:57:52.314Z,11.97
2023-08-05T18:00:22.521Z,12.30
2023-08-05T18:02:51.279Z,15.93
2023-08-05T18:05:20.256Z,21.15
2023-08-05T18:07:49.082Z,11.22
2023-08-05T18:10:17.852Z,15.48
2023-08-05T18:12:47.104Z,19.05
2023-08-05T18:15:16.424Z,14.90
2023-08-05T18:17:46.870Z,18.92
2023-08-05T18:20:15.745Z,15.40
2023-08-05T18:22:45.033Z,13.20
2023-08-05T18:25:13.818Z,19.07
2023-08-05T18:27:42.550Z,14.60
2023-08-05T18:30:11.749Z,17.90
2023-08-05T18:32:41.995Z,15.45
2023-08-05T18:35:14.074Z,16.70
2023-08-05T18:37:45.317Z,19.42
2023-08-05T18:40:16.294Z,16.77
2023-08-05T18:42:47.322Z,19.70
2023-08-05T18:45:15.697Z,21.12
2023-08-05T18:47:44.537Z,18.42
2023-08-05T18:50:15.379Z,28.30
2023-08-05T18:52:44.929Z,41.88
2023-08-05T18:55:13.735Z,47.40
2023-08-05T18:57:42.472Z,50.05
2023-08-05T19:00:12.021Z,38.40
2023-08-05T19:02:40.778Z,29.98
2023-08-05T19:05:10.769Z,26.17
2023-08-05T19:07:39.750Z,20.05
2023-08-05T19:10:08.498Z,17.73
2023-08-05T19:12:37.137Z,10.53
2023-08-05T19:15:07.123Z,16.17
2023-08-05T19:17:42.424Z,11.48
2023-08-05T19:20:23.326Z,6.37
2023-08-05T19:22:52.255Z,12.65
2023-08-05T19:25:22.804Z,9.85
2023-08-05T19:28:00.467Z,7.20
2023-08-05T19:30:38.265Z,6.33
2023-08-05T19:33:12.061Z,10.75
2023-08-05T19:35:43.307Z,11.85
2023-08-05T19:38:12.496Z,6.75
2023-08-05T19:40:58.413Z,5.50
2023-08-05T19:43:35.283Z,6.05
2023-08-05T19:46:09.547Z,5.97
2023-08-05T19:48:38.758Z,11.18
2023-08-05T19:51:14.311Z,5.08
2023-08-05T19:53:41.345Z,7.10
2023-08-05T19:56:10.190Z,9.33
2023-08-05T19:58:39.281Z,6.03
2023-08-05T20:01:10.000Z,4.67
2023-08-05T20:03:38.987Z,11.65
2023-08-05T20:06:10.696Z,12.25
2023-08-05T20:08:40.890Z,8.68
2023-08-05T20:11:13.170Z,12.07
2023-08-05T20:13:42.012Z,6.15
2023-08-05T20:16:10.780Z,2.62
2023-08-05T20:18:39.558Z,10.55
2023-08-05T20:21:08.254Z,3.90
2023-08-05T20:23:37.616Z,6.58
2023-08-05T20:26:12.400Z,8.80
2023-08-05T20:28:41.165Z,3.98
2023-08-05T20:31:11.617Z,5.85
2023-08-05T20:36:34.780Z,5.00
2023-08-05T20:39:04.571Z,6.10
2023-08-05T20:41:33.266Z,4.83
2023-08-05T20:44:02.090Z,2.92
2023-08-05T20:46:30.946Z,3.00
2023-08-05T20:48:59.624Z,6.83
2023-08-05T20:51:31.496Z,5.90
2023-08-05T20:54:00.305Z,5.70
2023-08-05T20:56:28.998Z,3.08
2023-08-05T20:58:57.809Z,5.25
2023-08-05T21:01:26.617Z,4.65
2023-08-05T21:03:55.427Z,3.20
2023-08-05T21:06:24.143Z,6.45
2023-08-05T21:08:52.858Z,3.00
2023-08-05T21:11:21.642Z,3.72
2023-08-05T21:13:50.405Z,4.00
2023-08-05T21:16:20.253Z,3.10
2023-08-05T21:18:49.139Z,4.85
2023-08-05T21:21:18.004Z,3.27
2023-08-05T21:23:46.863Z,3.60
2023-08-05T21:26:16.564Z,4.17
2023-08-05T21:28:45.388Z,5.33
2023-08-05T21:31:14.243Z,6.10
2023-08-05T21:33:42.935Z,3.90
2023-08-05T21:36:11.943Z,3.92
2023-08-05T21:38:40.827Z,2.60
2023-08-05T21:48:00.143Z,3.58
2023-08-05T21:50:28.986Z,5.95
2023-08-05T21:52:57.702Z,4.03
2023-08-05T21:55:26.356Z,3.87
2023-08-05T21:57:55.105Z,3.25
2023-08-05T22:00:25.704Z,3.58
2023-08-05T22:02:54.497Z,4.33
2023-08-05T22:05:23.469Z,6.00
2023-08-05T22:07:52.643Z,6.08
2023-08-05T22:10:22.253Z,4.00
2023-08-05T22:12:51.945Z,6.72
2023-08-05T22:15:20.801Z,9.63
2023-08-05T22:17:50.143Z,14.25
2023-08-05T22:20:18.951Z,14.87
2023-08-05T22:22:49.610Z,8.30
2023-08-05T22:25:18.511Z,15.03
2023-08-05T22:27:47.595Z,8.83
2023-08-05T22:30:16.487Z,7.80
2023-08-05T22:32:45.555Z,12.73
2023-08-05T22:35:14.364Z,6.17
2023-08-05T22:37:47.751Z,13.03
2023-08-05T22:40:19.395Z,8.28
2023-08-05T22:42:47.156Z,12.20
2023-08-05T22:45:16.094Z,5.47
2023-08-05T22:47:47.996Z,7.42
2023-08-05T22:50:19.705Z,6.78
2023-08-05T22:52:48.411Z,9.08
2023-08-05T22:55:17.329Z,7.03
2023-08-05T22:57:46.157Z,8.20
2023-08-05T23:00:15.387Z,6.83
2023-08-05T23:03:12.608Z,6.90
2023-08-05T23:05:43.902Z,6.67
2023-08-05T23:08:12.946Z,6.33
2023-08-05T23:10:46.124Z,7.12
2023-08-05T23:14:03.468Z,4.60
2023-08-05T23:16:36.685Z,7.03
2023-08-05T23:19:10.355Z,10.78
2023-08-05T23:21:44.317Z,5.37
2023-08-05T23:24:13.312Z,8.40
2023-08-05T23:26:42.525Z,6.67
2023-08-05T23:29:11.519Z,7.58
2023-08-05T23:31:42.163Z,7.85
2023-08-05T23:34:13.893Z,8.65
2023-08-05T23:36:42.632Z,11.43
2023-08-05T23:39:19.663Z,10.95
2023-08-05T23:41:48.447Z,8.43
2023-08-05T23:44:17.508Z,9.70
2023-08-05T23:46:46.273Z,7.65
2023-08-05T23:49:15.448Z,6.15
2023-08-05T23:51:44.079Z,5.60
2023-08-05T23:54:12.888Z,7.55
2023-08-05T23:56:43.265Z,6.58
2023-08-05T23:59:12.252Z,6.05
